sensor_id;sensor_type;location;lat;lon;timestamp;P1;durP1;ratioP1;P2;durP2;ratioP2
53533;SDS011;39421;53.204;6.568;2023-08-08T00:14:48;7.03;;;2.38;;
53533;SDS011;39421;53.204;6.568;2023-08-08T00:17:15;7.72;;;3.03;;
53533;SDS011;39421;53.204;6.568;2023-08-08T00:19:41;7.03;;;2.58;;
53533;SDS011;39421;53.204;6.568;2023-08-08T00:22:07;8.70;;;2.90;;
53533;SDS011;39421;53.204;6.568;2023-08-08T00:24:33;7.68;;;2.83;;
53533;SDS011;39421;53.204;6.568;2023-08-08T00:26:59;6.57;;;2.90;;
53533;SDS011;39421;53.204;6.568;2023-08-08T00:29:26;7.03;;;2.83;;
53533;SDS011;39421;53.204;6.568;2023-08-08T00:31:52;7.95;;;3.20;;
53533;SDS011;39421;53.204;6.568;2023-08-08T00:34:18;7.22;;;2.80;;
53533;SDS011;39421;53.204;6.568;2023-08-08T00:36:44;9.03;;;3.40;;
53533;SDS011;39421;53.204;6.568;2023-08-08T00:39:10;8.80;;;3.00;;
53533;SDS011;39421;53.204;6.568;2023-08-08T00:41:37;7.50;;;2.80;;
53533;SDS011;39421;53.204;6.568;2023-08-08T00:44:03;7.10;;;3.25;;
53533;SDS011;39421;53.204;6.568;2023-08-08T00:46:29;7.35;;;3.05;;
53533;SDS011;39421;53.204;6.568;2023-08-08T00:48:55;8.05;;;3.33;;
53533;SDS011;39421;53.204;6.568;2023-08-08T00:51:21;8.23;;;3.13;;
53533;SDS011;39421;53.204;6.568;2023-08-08T00:53:47;8.13;;;3.28;;
53533;SDS011;39421;53.204;6.568;2023-08-08T00:56:15;8.20;;;3.10;;
53533;SDS011;39421;53.204;6.568;2023-08-08T00:58:42;8.52;;;3.30;;
53533;SDS011;39421;53.204;6.568;2023-08-08T01:01:11;10.20;;;3.40;;
53533;SDS011;39421;53.204;6.568;2023-08-08T01:03:37;11.68;;;3.28;;
53533;SDS011;39421;53.204;6.568;2023-08-08T01:06:06;8.77;;;3.05;;
53533;SDS011;39421;53.204;6.568;2023-08-08T01:08:55;7.38;;;3.20;;
53533;SDS011;39421;53.204;6.568;2023-08-08T01:11:22;9.70;;;3.53;;
53533;SDS011;39421;53.204;6.568;2023-08-08T01:13:49;9.27;;;3.15;;
53533;SDS011;39421;53.204;6.568;2023-08-08T01:16:16;8.35;;;3.10;;
53533;SDS011;39421;53.204;6.568;2023-08-08T01:18:43;9.10;;;3.30;;
53533;SDS011;39421;53.204;6.568;2023-08-08T01:21:11;9.60;;;2.83;;
53533;SDS011;39421;53.204;6.568;2023-08-08T01:23:42;8.70;;;3.40;;
53533;SDS011;39421;53.204;6.568;2023-08-08T01:26:09;8.00;;;3.22;;
53533;SDS011;39421;53.204;6.568;2023-08-08T01:28:35;8.73;;;3.00;;
53533;SDS011;39421;53.204;6.568;2023-08-08T01:31:02;8.20;;;3.20;;
53533;SDS011;39421;53.204;6.568;2023-08-08T01:33:28;7.47;;;3.00;;
53533;SDS011;39421;53.204;6.568;2023-08-08T01:35:56;7.30;;;3.10;;
53533;SDS011;39421;53.204;6.568;2023-08-08T01:38:26;8.65;;;2.90;;
53533;SDS011;39421;53.204;6.568;2023-08-08T01:40:54;8.27;;;2.78;;
53533;SDS011;39421;53.204;6.568;2023-08-08T01:43:22;8.18;;;3.03;;
53533;SDS011;39421;53.204;6.568;2023-08-08T01:45:49;6.95;;;2.38;;
53533;SDS011;39421;53.204;6.568;2023-08-08T01:48:16;7.32;;;2.90;;
53533;SDS011;39421;53.204;6.568;2023-08-08T01:50:42;8.15;;;2.95;;
53533;SDS011;39421;53.204;6.568;2023-08-08T01:53:08;7.18;;;2.67;;
53533;SDS011;39421;53.204;6.568;2023-08-08T01:55:34;7.28;;;2.88;;
53533;SDS011;39421;53.204;6.568;2023-08-08T01:58:01;8.63;;;2.75;;
53533;SDS011;39421;53.204;6.568;2023-08-08T02:00:27;7.03;;;2.67;;
53533;SDS011;39421;53.204;6.568;2023-08-08T02:02:53;8.20;;;2.95;;
53533;SDS011;39421;53.204;6.568;2023-08-08T02:05:19;7.83;;;2.77;;
53533;SDS011;39421;53.204;6.568;2023-08-08T02:07:47;9.82;;;3.08;;
53533;SDS011;39421;53.204;6.568;2023-08-08T02:10:13;8.07;;;3.00;;
53533;SDS011;39421;53.204;6.568;2023-08-08T02:12:39;8.55;;;2.92;;
53533;SDS011;39421;53.204;6.568;2023-08-08T02:15:05;9.07;;;2.88;;
53533;SDS011;39421;53.204;6.568;2023-08-08T02:17:32;9.68;;;3.10;;
53533;SDS011;39421;53.204;6.568;2023-08-08T02:19:58;8.33;;;3.07;;
53533;SDS011;39421;53.204;6.568;2023-08-08T02:22:24;9.40;;;3.15;;
53533;SDS011;39421;53.204;6.568;2023-08-08T02:24:51;11.18;;;3.22;;
53533;SDS011;39421;53.204;6.568;2023-08-08T02:27:17;8.13;;;2.78;;
53533;SDS011;39421;53.204;6.568;2023-08-08T02:29:43;9.53;;;3.10;;
53533;SDS011;39421;53.204;6.568;2023-08-08T02:32:09;8.15;;;3.20;;
53533;SDS011;39421;53.204;6.568;2023-08-08T02:34:35;7.93;;;2.80;;
53533;SDS011;39421;53.204;6.568;2023-08-08T02:37:01;8.43;;;3.00;;
53533;SDS011;39421;53.204;6.568;2023-08-08T02:39:27;9.07;;;3.08;;
53533;SDS011;39421;53.204;6.568;2023-08-08T02:41:53;9.80;;;3.40;;
53533;SDS011;39421;53.204;6.568;2023-08-08T02:44:20;8.60;;;3.30;;
53533;SDS011;39421;53.204;6.568;2023-08-08T02:46:47;8.75;;;2.85;;
53533;SDS011;39421;53.204;6.568;2023-08-08T02:49:14;9.38;;;3.00;;
53533;SDS011;39421;53.204;6.568;2023-08-08T02:51:40;8.20;;;2.85;;
53533;SDS011;39421;53.204;6.568;2023-08-08T02:54:06;7.67;;;3.03;;
53533;SDS011;39421;53.204;6.568;2023-08-08T02:56:32;8.35;;;2.60;;
53533;SDS011;39421;53.204;6.568;2023-08-08T02:58:58;7.82;;;2.75;;
53533;SDS011;39421;53.204;6.568;2023-08-08T03:01:24;9.38;;;2.85;;
53533;SDS011;39421;53.204;6.568;2023-08-08T03:03:50;8.50;;;2.60;;
53533;SDS011;39421;53.204;6.568;2023-08-08T03:06:17;8.18;;;2.88;;
53533;SDS011;39421;53.204;6.568;2023-08-08T03:08:43;8.57;;;2.80;;
53533;SDS011;39421;53.204;6.568;2023-08-08T03:11:09;7.97;;;2.80;;
53533;SDS011;39421;53.204;6.568;2023-08-08T03:13:35;8.68;;;2.72;;
53533;SDS011;39421;53.204;6.568;2023-08-08T03:16:02;9.27;;;2.50;;
53533;SDS011;39421;53.204;6.568;2023-08-08T03:18:28;6.95;;;2.28;;
53533;SDS011;39421;53.204;6.568;2023-08-08T03:20:54;6.47;;;2.10;;
53533;SDS011;39421;53.204;6.568;2023-08-08T03:23:20;7.22;;;2.30;;
53533;SDS011;39421;53.204;6.568;2023-08-08T03:25:48;6.72;;;2.03;;
53533;SDS011;39421;53.204;6.568;2023-08-08T03:28:14;6.68;;;2.00;;
53533;SDS011;39421;53.204;6.568;2023-08-08T03:30:40;4.77;;;1.70;;
53533;SDS011;39421;53.204;6.568;2023-08-08T03:33:06;6.82;;;1.90;;
53533;SDS011;39421;53.204;6.568;2023-08-08T03:35:33;6.07;;;2.00;;
53533;SDS011;39421;53.204;6.568;2023-08-08T03:37:59;5.70;;;1.70;;
53533;SDS011;39421;53.204;6.568;2023-08-08T03:40:25;5.10;;;1.60;;
53533;SDS011;39421;53.204;6.568;2023-08-08T03:42:51;5.60;;;1.70;;
53533;SDS011;39421;53.204;6.568;2023-08-08T03:45:17;7.18;;;2.20;;
53533;SDS011;39421;53.204;6.568;2023-08-08T03:47:43;6.88;;;1.88;;
53533;SDS011;39421;53.204;6.568;2023-08-08T03:50:09;4.00;;;1.80;;
53533;SDS011;39421;53.204;6.568;2023-08-08T03:52:35;5.30;;;1.75;;
53533;SDS011;39421;53.204;6.568;2023-08-08T03:55:03;6.37;;;1.80;;
53533;SDS011;39421;53.204;6.568;2023-08-08T03:57:29;5.18;;;1.70;;
53533;SDS011;39421;53.204;6.568;2023-08-08T03:59:55;6.90;;;1.90;;
53533;SDS011;39421;53.204;6.568;2023-08-08T04:02:21;7.53;;;2.03;;
53533;SDS011;39421;53.204;6.568;2023-08-08T04:04:47;5.63;;;1.80;;
53533;SDS011;39421;53.204;6.568;2023-08-08T04:07:14;5.73;;;1.83;;
53533;SDS011;39421;53.204;6.568;2023-08-08T04:09:40;5.95;;;2.10;;
53533;SDS011;39421;53.204;6.568;2023-08-08T04:12:07;4.20;;;1.45;;
53533;SDS011;39421;53.204;6.568;2023-08-08T04:14:33;7.33;;;1.70;;
53533;SDS011;39421;53.204;6.568;2023-08-08T04:16:59;5.43;;;1.60;;
53533;SDS011;39421;53.204;6.568;2023-08-08T04:19:26;5.95;;;1.77;;
53533;SDS011;39421;53.204;6.568;2023-08-08T04:21:52;7.68;;;1.90;;
53533;SDS011;39421;53.204;6.568;2023-08-08T04:24:18;8.40;;;1.83;;
53533;SDS011;39421;53.204;6.568;2023-08-08T04:26:44;5.65;;;1.70;;
53533;SDS011;39421;53.204;6.568;2023-08-08T04:29:10;6.60;;;1.73;;
53533;SDS011;39421;53.204;6.568;2023-08-08T04:31:36;5.35;;;1.70;;
53533;SDS011;39421;53.204;6.568;2023-08-08T04:34:02;5.57;;;1.70;;
53533;SDS011;39421;53.204;6.568;2023-08-08T04:36:29;5.43;;;1.70;;
53533;SDS011;39421;53.204;6.568;2023-08-08T04:38:55;5.97;;;2.00;;
53533;SDS011;39421;53.204;6.568;2023-08-08T04:41:21;5.90;;;1.65;;
53533;SDS011;39421;53.204;6.568;2023-08-08T04:43:47;6.47;;;1.77;;
53533;SDS011;39421;53.204;6.568;2023-08-08T04:46:13;6.72;;;1.75;;
53533;SDS011;39421;53.204;6.568;2023-08-08T04:48:39;7.13;;;1.70;;
53533;SDS011;39421;53.204;6.568;2023-08-08T04:51:06;7.20;;;1.80;;
53533;SDS011;39421;53.204;6.568;2023-08-08T04:53:32;5.73;;;1.57;;
53533;SDS011;39421;53.204;6.568;2023-08-08T04:55:58;6.28;;;1.90;;
53533;SDS011;39421;53.204;6.568;2023-08-08T04:58:24;6.45;;;1.85;;
53533;SDS011;39421;53.204;6.568;2023-08-08T05:00:50;6.82;;;1.70;;
53533;SDS011;39421;53.204;6.568;2023-08-08T05:03:17;5.90;;;1.90;;
53533;SDS011;39421;53.204;6.568;2023-08-08T05:05:43;7.30;;;1.85;;
53533;SDS011;39421;53.204;6.568;2023-08-08T05:08:15;6.35;;;1.85;;
53533;SDS011;39421;53.204;6.568;2023-08-08T05:10:41;5.88;;;1.63;;
53533;SDS011;39421;53.204;6.568;2023-08-08T05:13:08;6.72;;;1.75;;
53533;SDS011;39421;53.204;6.568;2023-08-08T05:15:34;6.43;;;1.88;;
53533;SDS011;39421;53.204;6.568;2023-08-08T05:18:00;6.97;;;1.75;;
53533;SDS011;39421;53.204;6.568;2023-08-08T05:20:26;8.37;;;1.70;;
53533;SDS011;39421;53.204;6.568;2023-08-08T05:22:52;7.03;;;1.73;;
53533;SDS011;39421;53.204;6.568;2023-08-08T05:25:19;7.25;;;1.77;;
53533;SDS011;39421;53.204;6.568;2023-08-08T05:27:45;13.03;;;2.37;;
53533;SDS011;39421;53.204;6.568;2023-08-08T05:30:12;5.85;;;1.75;;
53533;SDS011;39421;53.204;6.568;2023-08-08T05:32:38;8.27;;;2.13;;
53533;SDS011;39421;53.204;6.568;2023-08-08T05:35:05;9.43;;;1.90;;
53533;SDS011;39421;53.204;6.568;2023-08-08T05:37:31;6.82;;;1.60;;
53533;SDS011;39421;53.204;6.568;2023-08-08T05:39:57;5.77;;;1.53;;
53533;SDS011;39421;53.204;6.568;2023-08-08T05:42:23;9.48;;;1.77;;
53533;SDS011;39421;53.204;6.568;2023-08-08T05:44:49;7.22;;;1.67;;
53533;SDS011;39421;53.204;6.568;2023-08-08T05:47:16;7.33;;;1.60;;
53533;SDS011;39421;53.204;6.568;2023-08-08T05:49:42;9.82;;;1.60;;
53533;SDS011;39421;53.204;6.568;2023-08-08T05:52:08;6.20;;;1.38;;
53533;SDS011;39421;53.204;6.568;2023-08-08T05:54:34;10.82;;;1.67;;
53533;SDS011;39421;53.204;6.568;2023-08-08T05:57:01;7.15;;;1.73;;
53533;SDS011;39421;53.204;6.568;2023-08-08T05:59:27;9.32;;;1.80;;
53533;SDS011;39421;53.204;6.568;2023-08-08T06:01:54;7.20;;;1.50;;
53533;SDS011;39421;53.204;6.568;2023-08-08T06:04:20;6.57;;;1.52;;
53533;SDS011;39421;53.204;6.568;2023-08-08T06:06:46;12.07;;;1.70;;
53533;SDS011;39421;53.204;6.568;2023-08-08T06:09:14;6.68;;;1.33;;
53533;SDS011;39421;53.204;6.568;2023-08-08T06:11:40;9.30;;;1.55;;
53533;SDS011;39421;53.204;6.568;2023-08-08T06:14:06;8.30;;;1.58;;
53533;SDS011;39421;53.204;6.568;2023-08-08T06:16:32;9.20;;;1.58;;
53533;SDS011;39421;53.204;6.568;2023-08-08T06:18:59;6.40;;;1.45;;
53533;SDS011;39421;53.204;6.568;2023-08-08T06:21:27;6.90;;;1.48;;
53533;SDS011;39421;53.204;6.568;2023-08-08T06:23:53;7.57;;;1.60;;
53533;SDS011;39421;53.204;6.568;2023-08-08T06:26:23;18.97;;;2.10;;
53533;SDS011;39421;53.204;6.568;2023-08-08T06:28:49;7.70;;;1.30;;
53533;SDS011;39421;53.204;6.568;2023-08-08T06:31:16;8.25;;;1.55;;
53533;SDS011;39421;53.204;6.568;2023-08-08T06:33:43;7.32;;;1.35;;
53533;SDS011;39421;53.204;6.568;2023-08-08T06:36:09;6.40;;;1.25;;
53533;SDS011;39421;53.204;6.568;2023-08-08T06:38:35;9.03;;;1.60;;
53533;SDS011;39421;53.204;6.568;2023-08-08T06:41:02;16.75;;;2.25;;
53533;SDS011;39421;53.204;6.568;2023-08-08T06:43:29;17.52;;;2.20;;
53533;SDS011;39421;53.204;6.568;2023-08-08T06:45:55;7.55;;;1.40;;
53533;SDS011;39421;53.204;6.568;2023-08-08T06:48:21;6.07;;;1.17;;
53533;SDS011;39421;53.204;6.568;2023-08-08T06:50:47;7.22;;;1.30;;
53533;SDS011;39421;53.204;6.568;2023-08-08T06:53:14;9.05;;;1.83;;
53533;SDS011;39421;53.204;6.568;2023-08-08T06:55:40;7.00;;;1.50;;
53533;SDS011;39421;53.204;6.568;2023-08-08T06:58:06;7.65;;;1.50;;
53533;SDS011;39421;53.204;6.568;2023-08-08T07:00:33;6.47;;;1.40;;
53533;SDS011;39421;53.204;6.568;2023-08-08T07:02:59;6.45;;;1.38;;
53533;SDS011;39421;53.204;6.568;2023-08-08T07:05:25;6.65;;;1.13;;
53533;SDS011;39421;53.204;6.568;2023-08-08T07:07:51;8.85;;;1.40;;
53533;SDS011;39421;53.204;6.568;2023-08-08T07:10:18;14.40;;;1.88;;
53533;SDS011;39421;53.204;6.568;2023-08-08T07:12:45;12.63;;;1.80;;
53533;SDS011;39421;53.204;6.568;2023-08-08T07:15:11;26.13;;;2.95;;
53533;SDS011;39421;53.204;6.568;2023-08-08T07:17:37;7.80;;;1.13;;
53533;SDS011;39421;53.204;6.568;2023-08-08T07:20:04;6.70;;;1.20;;
53533;SDS011;39421;53.204;6.568;2023-08-08T07:22:31;16.17;;;1.80;;
53533;SDS011;39421;53.204;6.568;2023-08-08T07:24:57;7.83;;;1.40;;
53533;SDS011;39421;53.204;6.568;2023-08-08T07:27:23;6.63;;;1.17;;
53533;SDS011;39421;53.204;6.568;2023-08-08T07:29:49;15.90;;;2.05;;
53533;SDS011;39421;53.204;6.568;2023-08-08T07:32:15;7.20;;;1.30;;
53533;SDS011;39421;53.204;6.568;2023-08-08T07:34:42;6.90;;;1.40;;
53533;SDS011;39421;53.204;6.568;2023-08-08T07:37:08;8.45;;;1.50;;
53533;SDS011;39421;53.204;6.568;2023-08-08T07:39:34;8.32;;;1.13;;
53533;SDS011;39421;53.204;6.568;2023-08-08T07:42:00;8.80;;;1.23;;
53533;SDS011;39421;53.204;6.568;2023-08-08T07:44:27;7.03;;;1.10;;
53533;SDS011;39421;53.204;6.568;2023-08-08T07:46:53;6.40;;;1.30;;
53533;SDS011;39421;53.204;6.568;2023-08-08T07:49:19;8.82;;;1.30;;
53533;SDS011;39421;53.204;6.568;2023-08-08T07:51:45;5.60;;;1.10;;
53533;SDS011;39421;53.204;6.568;2023-08-08T07:54:12;5.45;;;1.20;;
53533;SDS011;39421;53.204;6.568;2023-08-08T07:56:38;32.20;;;4.10;;
53533;SDS011;39421;53.204;6.568;2023-08-08T07:59:04;16.75;;;2.22;;
53533;SDS011;39421;53.204;6.568;2023-08-08T08:01:31;8.75;;;1.48;;
53533;SDS011;39421;53.204;6.568;2023-08-08T08:03:57;11.75;;;1.50;;
53533;SDS011;39421;53.204;6.568;2023-08-08T08:06:23;20.57;;;2.40;;
53533;SDS011;39421;53.204;6.568;2023-08-08T08:08:49;8.50;;;1.25;;
53533;SDS011;39421;53.204;6.568;2023-08-08T08:11:15;17.90;;;2.22;;
53533;SDS011;39421;53.204;6.568;2023-08-08T08:13:41;14.95;;;1.40;;
53533;SDS011;39421;53.204;6.568;2023-08-08T08:16:08;14.80;;;1.67;;
53533;SDS011;39421;53.204;6.568;2023-08-08T08:18:34;9.93;;;1.40;;
53533;SDS011;39421;53.204;6.568;2023-08-08T08:21:00;8.60;;;1.30;;
53533;SDS011;39421;53.204;6.568;2023-08-08T08:23:26;9.23;;;1.57;;
53533;SDS011;39421;53.204;6.568;2023-08-08T08:25:53;13.77;;;1.98;;
53533;SDS011;39421;53.204;6.568;2023-08-08T08:28:19;10.93;;;1.60;;
53533;SDS011;39421;53.204;6.568;2023-08-08T08:30:45;13.23;;;1.90;;
53533;SDS011;39421;53.204;6.568;2023-08-08T08:33:11;15.85;;;2.08;;
53533;SDS011;39421;53.204;6.568;2023-08-08T08:35:37;7.97;;;1.27;;
53533;SDS011;39421;53.204;6.568;2023-08-08T08:38:04;9.10;;;1.60;;
53533;SDS011;39421;53.204;6.568;2023-08-08T08:40:31;17.58;;;2.13;;
53533;SDS011;39421;53.204;6.568;2023-08-08T08:43:00;7.13;;;1.40;;
53533;SDS011;39421;53.204;6.568;2023-08-08T08:45:26;13.90;;;1.63;;
53533;SDS011;39421;53.204;6.568;2023-08-08T08:47:53;20.88;;;2.42;;
53533;SDS011;39421;53.204;6.568;2023-08-08T08:50:21;20.52;;;2.38;;
53533;SDS011;39421;53.204;6.568;2023-08-08T08:52:47;9.82;;;1.50;;
53533;SDS011;39421;53.204;6.568;2023-08-08T08:55:15;8.52;;;1.33;;
53533;SDS011;39421;53.204;6.568;2023-08-08T08:57:42;9.52;;;1.30;;
53533;SDS011;39421;53.204;6.568;2023-08-08T09:00:09;7.07;;;1.30;;
53533;SDS011;39421;53.204;6.568;2023-08-08T09:02:36;10.00;;;1.60;;
53533;SDS011;39421;53.204;6.568;2023-08-08T09:05:02;23.27;;;2.30;;
53533;SDS011;39421;53.204;6.568;2023-08-08T09:07:29;10.43;;;1.40;;
53533;SDS011;39421;53.204;6.568;2023-08-08T09:09:57;26.08;;;3.60;;
53533;SDS011;39421;53.204;6.568;2023-08-08T09:12:23;16.07;;;2.03;;
53533;SDS011;39421;53.204;6.568;2023-08-08T09:14:54;50.97;;;5.35;;
53533;SDS011;39421;53.204;6.568;2023-08-08T09:17:21;5.40;;;1.10;;
53533;SDS011;39421;53.204;6.568;2023-08-08T09:19:47;27.80;;;2.77;;
53533;SDS011;39421;53.204;6.568;2023-08-08T09:22:13;6.85;;;1.25;;
53533;SDS011;39421;53.204;6.568;2023-08-08T09:24:40;5.43;;;1.13;;
53533;SDS011;39421;53.204;6.568;2023-08-08T09:27:07;5.65;;;1.10;;
53533;SDS011;39421;53.204;6.568;2023-08-08T09:29:33;5.68;;;1.10;;
53533;SDS011;39421;53.204;6.568;2023-08-08T09:32:02;4.93;;;1.27;;
53533;SDS011;39421;53.204;6.568;2023-08-08T09:34:29;8.60;;;1.40;;
53533;SDS011;39421;53.204;6.568;2023-08-08T09:36:55;10.27;;;1.80;;
53533;SDS011;39421;53.204;6.568;2023-08-08T09:39:21;10.00;;;1.48;;
53533;SDS011;39421;53.204;6.568;2023-08-08T09:41:48;42.08;;;3.35;;
53533;SDS011;39421;53.204;6.568;2023-08-08T09:44:15;11.35;;;1.52;;
53533;SDS011;39421;53.204;6.568;2023-08-08T09:46:42;5.13;;;0.93;;
53533;SDS011;39421;53.204;6.568;2023-08-08T09:49:10;16.38;;;2.20;;
53533;SDS011;39421;53.204;6.568;2023-08-08T09:51:37;7.82;;;1.20;;
53533;SDS011;39421;53.204;6.568;2023-08-08T09:54:03;7.75;;;1.42;;
53533;SDS011;39421;53.204;6.568;2023-08-08T09:56:32;4.40;;;1.00;;
53533;SDS011;39421;53.204;6.568;2023-08-08T09:58:58;7.57;;;1.30;;
53533;SDS011;39421;53.204;6.568;2023-08-08T10:01:25;8.15;;;1.35;;
53533;SDS011;39421;53.204;6.568;2023-08-08T10:03:52;26.98;;;2.33;;
53533;SDS011;39421;53.204;6.568;2023-08-08T10:06:18;9.07;;;1.40;;
53533;SDS011;39421;53.204;6.568;2023-08-08T10:08:45;5.50;;;1.10;;
53533;SDS011;39421;53.204;6.568;2023-08-08T10:11:11;3.92;;;0.82;;
53533;SDS011;39421;53.204;6.568;2023-08-08T10:13:46;4.47;;;1.00;;
53533;SDS011;39421;53.204;6.568;2023-08-08T10:16:15;2.37;;;0.90;;
53533;SDS011;39421;53.204;6.568;2023-08-08T10:18:41;3.97;;;1.00;;
53533;SDS011;39421;53.204;6.568;2023-08-08T10:21:07;3.72;;;1.23;;
53533;SDS011;39421;53.204;6.568;2023-08-08T10:23:36;4.45;;;1.17;;
53533;SDS011;39421;53.204;6.568;2023-08-08T10:26:02;5.03;;;1.20;;
53533;SDS011;39421;53.204;6.568;2023-08-08T10:28:29;5.72;;;1.23;;
53533;SDS011;39421;53.204;6.568;2023-08-08T10:30:58;6.22;;;1.40;;
53533;SDS011;39421;53.204;6.568;2023-08-08T10:33:25;5.07;;;1.27;;
53533;SDS011;39421;53.204;6.568;2023-08-08T10:35:58;6.75;;;1.50;;
53533;SDS011;39421;53.204;6.568;2023-08-08T10:38:25;5.07;;;1.25;;
53533;SDS011;39421;53.204;6.568;2023-08-08T10:40:56;6.00;;;1.50;;
53533;SDS011;39421;53.204;6.568;2023-08-08T10:43:26;6.68;;;1.55;;
53533;SDS011;39421;53.204;6.568;2023-08-08T10:45:56;6.70;;;1.42;;
53533;SDS011;39421;53.204;6.568;2023-08-08T10:48:22;7.20;;;1.50;;
53533;SDS011;39421;53.204;6.568;2023-08-08T10:50:48;6.43;;;1.10;;
53533;SDS011;39421;53.204;6.568;2023-08-08T10:53:14;5.43;;;1.30;;
53533;SDS011;39421;53.204;6.568;2023-08-08T10:55:40;5.22;;;1.20;;
53533;SDS011;39421;53.204;6.568;2023-08-08T10:58:10;4.70;;;1.42;;
53533;SDS011;39421;53.204;6.568;2023-08-08T11:00:40;3.53;;;1.08;;
53533;SDS011;39421;53.204;6.568;2023-08-08T11:03:07;6.07;;;1.25;;
53533;SDS011;39421;53.204;6.568;2023-08-08T11:05:34;5.78;;;1.27;;
53533;SDS011;39421;53.204;6.568;2023-08-08T11:08:05;6.93;;;1.40;;
53533;SDS011;39421;53.204;6.568;2023-08-08T11:10:34;4.40;;;1.10;;
53533;SDS011;39421;53.204;6.568;2023-08-08T11:13:03;5.72;;;1.40;;
53533;SDS011;39421;53.204;6.568;2023-08-08T11:15:29;5.88;;;1.30;;
53533;SDS011;39421;53.204;6.568;2023-08-08T11:17:56;5.25;;;1.00;;
53533;SDS011;39421;53.204;6.568;2023-08-08T11:20:22;5.90;;;1.13;;
53533;SDS011;39421;53.204;6.568;2023-08-08T11:22:52;5.63;;;1.00;;
53533;SDS011;39421;53.204;6.568;2023-08-08T11:25:19;5.10;;;1.15;;
53533;SDS011;39421;53.204;6.568;2023-08-08T11:27:49;5.88;;;1.10;;
53533;SDS011;39421;53.204;6.568;2023-08-08T11:30:16;6.75;;;1.10;;
53533;SDS011;39421;53.204;6.568;2023-08-08T11:32:42;4.60;;;1.25;;
53533;SDS011;39421;53.204;6.568;2023-08-08T11:35:08;4.38;;;1.10;;
53533;SDS011;39421;53.204;6.568;2023-08-08T11:37:35;4.72;;;1.20;;
53533;SDS011;39421;53.204;6.568;2023-08-08T11:40:02;5.82;;;1.00;;
53533;SDS011;39421;53.204;6.568;2023-08-08T11:42:30;3.83;;;1.00;;
53533;SDS011;39421;53.204;6.568;2023-08-08T11:44:57;5.90;;;1.00;;
53533;SDS011;39421;53.204;6.568;2023-08-08T11:47:24;4.15;;;1.17;;
53533;SDS011;39421;53.204;6.568;2023-08-08T11:49:51;5.78;;;1.13;;
53533;SDS011;39421;53.204;6.568;2023-08-08T11:52:18;4.55;;;1.10;;
53533;SDS011;39421;53.204;6.568;2023-08-08T11:54:50;5.55;;;1.20;;
53533;SDS011;39421;53.204;6.568;2023-08-08T11:57:17;5.25;;;1.05;;
53533;SDS011;39421;53.204;6.568;2023-08-08T11:59:43;6.60;;;1.27;;
53533;SDS011;39421;53.204;6.568;2023-08-08T12:02:09;12.57;;;1.55;;
53533;SDS011;39421;53.204;6.568;2023-08-08T12:04:36;7.00;;;1.27;;
53533;SDS011;39421;53.204;6.568;2023-08-08T12:07:02;7.47;;;1.30;;
53533;SDS011;39421;53.204;6.568;2023-08-08T12:09:30;5.00;;;1.13;;
53533;SDS011;39421;53.204;6.568;2023-08-08T12:12:00;6.60;;;1.13;;
53533;SDS011;39421;53.204;6.568;2023-08-08T12:14:26;5.32;;;1.00;;
53533;SDS011;39421;53.204;6.568;2023-08-08T12:16:53;6.47;;;1.30;;
53533;SDS011;39421;53.204;6.568;2023-08-08T12:19:22;4.15;;;1.17;;
53533;SDS011;39421;53.204;6.568;2023-08-08T12:21:48;5.75;;;1.27;;
53533;SDS011;39421;53.204;6.568;2023-08-08T12:24:15;5.85;;;1.20;;
53533;SDS011;39421;53.204;6.568;2023-08-08T12:26:41;4.90;;;1.10;;
53533;SDS011;39421;53.204;6.568;2023-08-08T12:29:07;11.68;;;1.23;;
53533;SDS011;39421;53.204;6.568;2023-08-08T12:31:33;6.75;;;1.38;;
53533;SDS011;39421;53.204;6.568;2023-08-08T12:33:59;8.13;;;1.20;;
53533;SDS011;39421;53.204;6.568;2023-08-08T12:36:26;6.32;;;1.20;;
53533;SDS011;39421;53.204;6.568;2023-08-08T12:38:52;5.72;;;1.13;;
53533;SDS011;39421;53.204;6.568;2023-08-08T12:41:18;8.33;;;1.50;;
53533;SDS011;39421;53.204;6.568;2023-08-08T12:43:44;5.68;;;1.20;;
53533;SDS011;39421;53.204;6.568;2023-08-08T12:46:10;5.90;;;1.20;;
53533;SDS011;39421;53.204;6.568;2023-08-08T12:48:36;6.23;;;1.03;;
53533;SDS011;39421;53.204;6.568;2023-08-08T12:51:02;4.05;;;1.02;;
53533;SDS011;39421;53.204;6.568;2023-08-08T12:53:29;19.70;;;2.00;;
53533;SDS011;39421;53.204;6.568;2023-08-08T12:55:56;5.13;;;1.05;;
53533;SDS011;39421;53.204;6.568;2023-08-08T12:58:22;8.10;;;1.27;;
53533;SDS011;39421;53.204;6.568;2023-08-08T13:00:48;5.57;;;1.20;;
53533;SDS011;39421;53.204;6.568;2023-08-08T13:03:14;5.25;;;1.15;;
53533;SDS011;39421;53.204;6.568;2023-08-08T13:05:40;6.73;;;1.60;;
53533;SDS011;39421;53.204;6.568;2023-08-08T13:08:06;6.47;;;1.10;;
53533;SDS011;39421;53.204;6.568;2023-08-08T13:10:33;21.42;;;1.65;;
53533;SDS011;39421;53.204;6.568;2023-08-08T13:12:59;4.50;;;1.17;;
53533;SDS011;39421;53.204;6.568;2023-08-08T13:15:25;5.20;;;1.13;;
53533;SDS011;39421;53.204;6.568;2023-08-08T13:17:51;5.03;;;1.27;;
53533;SDS011;39421;53.204;6.568;2023-08-08T13:20:17;6.05;;;1.10;;
53533;SDS011;39421;53.204;6.568;2023-08-08T13:22:43;4.65;;;1.15;;
53533;SDS011;39421;53.204;6.568;2023-08-08T13:25:09;9.70;;;1.57;;
53533;SDS011;39421;53.204;6.568;2023-08-08T13:27:35;12.23;;;1.70;;
53533;SDS011;39421;53.204;6.568;2023-08-08T13:30:02;5.97;;;1.23;;
53533;SDS011;39421;53.204;6.568;2023-08-08T13:32:29;7.35;;;1.30;;
53533;SDS011;39421;53.204;6.568;2023-08-08T13:34:55;4.80;;;1.00;;
53533;SDS011;39421;53.204;6.568;2023-08-08T13:37:21;5.80;;;1.13;;
53533;SDS011;39421;53.204;6.568;2023-08-08T13:39:47;8.05;;;1.15;;
53533;SDS011;39421;53.204;6.568;2023-08-08T13:42:13;6.37;;;1.10;;
53533;SDS011;39421;53.204;6.568;2023-08-08T13:44:39;14.45;;;1.42;;
53533;SDS011;39421;53.204;6.568;2023-08-08T13:47:05;27.87;;;2.33;;
53533;SDS011;39421;53.204;6.568;2023-08-08T13:49:31;10.80;;;1.30;;
53533;SDS011;39421;53.204;6.568;2023-08-08T13:51:57;11.43;;;1.60;;
53533;SDS011;39421;53.204;6.568;2023-08-08T13:54:23;7.72;;;1.30;;
53533;SDS011;39421;53.204;6.568;2023-08-08T13:56:50;6.93;;;1.23;;
53533;SDS011;39421;53.204;6.568;2023-08-08T13:59:16;9.43;;;1.40;;
53533;SDS011;39421;53.204;6.568;2023-08-08T14:01:42;9.30;;;1.52;;
53533;SDS011;39421;53.204;6.568;2023-08-08T14:04:08;5.93;;;1.20;;
53533;SDS011;39421;53.204;6.568;2023-08-08T14:06:34;5.13;;;1.20;;
53533;SDS011;39421;53.204;6.568;2023-08-08T14:09:00;5.00;;;1.35;;
53533;SDS011;39421;53.204;6.568;2023-08-08T14:11:28;4.43;;;1.15;;
53533;SDS011;39421;53.204;6.568;2023-08-08T14:13:54;8.75;;;1.20;;
53533;SDS011;39421;53.204;6.568;2023-08-08T14:16:20;5.43;;;1.10;;
53533;SDS011;39421;53.204;6.568;2023-08-08T14:18:47;5.35;;;1.25;;
53533;SDS011;39421;53.204;6.568;2023-08-08T14:21:13;4.03;;;1.10;;
53533;SDS011;39421;53.204;6.568;2023-08-08T14:23:39;6.80;;;1.20;;
53533;SDS011;39421;53.204;6.568;2023-08-08T14:26:05;5.28;;;1.20;;
53533;SDS011;39421;53.204;6.568;2023-08-08T14:28:31;9.75;;;1.48;;
53533;SDS011;39421;53.204;6.568;2023-08-08T14:30:58;5.53;;;1.00;;
53533;SDS011;39421;53.204;6.568;2023-08-08T14:33:24;6.85;;;1.38;;
53533;SDS011;39421;53.204;6.568;2023-08-08T14:35:50;6.95;;;1.30;;
53533;SDS011;39421;53.204;6.568;2023-08-08T14:38:16;11.38;;;1.80;;
53533;SDS011;39421;53.204;6.568;2023-08-08T14:40:42;8.55;;;1.30;;
53533;SDS011;39421;53.204;6.568;2023-08-08T14:43:08;9.00;;;1.50;;
53533;SDS011;39421;53.204;6.568;2023-08-08T14:45:38;6.10;;;1.27;;
53533;SDS011;39421;53.204;6.568;2023-08-08T14:48:04;6.45;;;1.20;;
53533;SDS011;39421;53.204;6.568;2023-08-08T14:50:31;6.70;;;1.50;;
53533;SDS011;39421;53.204;6.568;2023-08-08T14:52:57;5.55;;;1.02;;
53533;SDS011;39421;53.204;6.568;2023-08-08T14:55:23;8.77;;;1.65;;